Time;durP1;ratioP1;P1;durP2;ratioP2;P2;SDS_P1;SDS_P2;PMS_P1;PMS_P2;Temp;Humidity;BMP_temperature;BMP_pressure;BME280_temperature;BME280_humidity;BME280_pressure;Samples;Min_cycle;Max_cycle;Signal;HPM_P1;HPM_P2
2022/03/31 00:00:29;;;;;;;8.85;5.50;;;;;;;;;;5026859;28;20673;-78
2022/03/31 00:02:56;;;;;;;6.90;4.60;;;;;;;;;;5029207;28;20713;-79
2022/03/31 00:05:23;;;;;;;4.55;4.15;;;;;;;;;;5027427;28;20518;-79
2022/03/31 00:07:51;;;;;;;8.93;5.22;;;;;;;;;;5029181;28;20196;-78
2022/03/31 00:10:22;;;;;;;5.70;5.10;;;;;;;;;;5027057;28;20245;-80
2022/03/31 00:12:49;;;;;;;7.15;5.25;;;;;;;;;;5029601;28;20635;-78
2022/03/31 00:15:16;;;;;;;5.68;4.60;;;;;;;;;;5025301;28;20257;-80
2022/03/31 00:17:44;;;;;;;6.70;5.40;;;;;;;;;;5034672;28;20261;-79
2022/03/31 00:20:12;;;;;;;6.60;5.18;;;;;;;;;;5022182;28;20195;-78
2022/03/31 00:22:39;;;;;;;8.98;4.70;;;;;;;;;;5026110;28;20203;-78
2022/03/31 00:25:07;;;;;;;6.97;5.78;;;;;;;;;;5026821;28;20269;-81
2022/03/31 00:27:35;;;;;;;9.25;5.07;;;;;;;;;;5026049;28;20226;-82
2022/03/31 00:30:02;;;;;;;7.25;5.18;;;;;;;;;;5027282;28;20195;-82
2022/03/31 00:32:29;;;;;;;7.35;4.82;;;;;;;;;;5028881;28;20593;-82
2022/03/31 00:34:57;;;;;;;8.48;5.28;;;;;;;;;;5030159;28;20199;-82
2022/03/31 00:37:24;;;;;;;5.85;4.68;;;;;;;;;;5026639;28;20203;-82
2022/03/31 00:39:51;;;;;;;6.72;5.60;;;;;;;;;;5024661;28;20220;-82
2022/03/31 00:42:18;;;;;;;7.50;5.40;;;;;;;;;;5029628;28;20207;-82
2022/03/31 00:44:45;;;;;;;11.23;5.15;;;;;;;;;;5024918;28;20208;-82
2022/03/31 00:47:13;;;;;;;10.10;5.35;;;;;;;;;;5027647;28;20261;-80
2022/03/31 00:49:40;;;;;;;6.00;5.22;;;;;;;;;;5022328;28;20283;-80
2022/03/31 00:52:09;;;;;;;14.27;5.57;;;;;;;;;;5028523;28;20292;-80
2022/03/31 00:54:36;;;;;;;6.65;5.38;;;;;;;;;;5029444;28;20601;-81
2022/03/31 00:57:04;;;;;;;9.23;6.55;;;;;;;;;;5025619;28;20191;-80
2022/03/31 00:59:31;;;;;;;6.85;5.03;;;;;;;;;;5028447;28;20204;-78
2022/03/31 01:01:59;;;;;;;6.90;5.90;;;;;;;;;;5031730;28;20199;-78
2022/03/31 01:04:27;;;;;;;8.48;5.93;;;;;;;;;;5032290;28;20378;-79
2022/03/31 01:06:54;;;;;;;10.98;5.85;;;;;;;;;;5029191;28;20223;-78
2022/03/31 01:09:22;;;;;;;6.32;5.72;;;;;;;;;;5032675;28;20808;-79
2022/03/31 01:11:49;;;;;;;6.82;6.13;;;;;;;;;;5029989;28;20195;-78
2022/03/31 01:14:16;;;;;;;8.10;5.90;;;;;;;;;;5032843;28;20254;-81
2022/03/31 01:16:43;;;;;;;9.52;5.85;;;;;;;;;;5030632;28;20195;-81
2022/03/31 01:19:12;;;;;;;10.32;6.60;;;;;;;;;;5031524;28;20206;-80
2022/03/31 01:21:39;;;;;;;8.07;5.95;;;;;;;;;;5031341;28;20191;-80
2022/03/31 01:24:09;;;;;;;6.65;5.93;;;;;;;;;;5031903;28;20269;-80
2022/03/31 01:26:36;;;;;;;14.15;6.90;;;;;;;;;;5028598;28;20239;-81
2022/03/31 01:29:03;;;;;;;8.82;6.10;;;;;;;;;;5033070;28;20601;-80
2022/03/31 01:31:30;;;;;;;6.70;5.05;;;;;;;;;;5028282;28;20230;-80
2022/03/31 01:33:57;;;;;;;6.30;5.30;;;;;;;;;;5029440;28;20539;-80
2022/03/31 01:36:24;;;;;;;8.60;5.22;;;;;;;;;;5031142;28;20613;-79
2022/03/31 01:38:51;;;;;;;5.90;5.30;;;;;;;;;;5031631;28;20257;-80
2022/03/31 01:41:20;;;;;;;7.47;6.70;;;;;;;;;;5025221;28;20261;-81
2022/03/31 01:43:47;;;;;;;12.93;6.25;;;;;;;;;;5031481;28;20322;-78
2022/03/31 01:46:14;;;;;;;8.77;6.45;;;;;;;;;;5029426;28;20277;-81
2022/03/31 01:48:41;;;;;;;7.55;5.43;;;;;;;;;;5033570;28;20192;-81
2022/03/31 01:51:08;;;;;;;7.38;5.85;;;;;;;;;;5029230;28;20564;-81
2022/03/31 01:53:36;;;;;;;9.40;5.15;;;;;;;;;;5028870;28;20720;-80
2022/03/31 01:56:03;;;;;;;9.25;7.00;;;;;;;;;;5028730;28;20250;-80
2022/03/31 01:58:31;;;;;;;10.85;6.55;;;;;;;;;;5028067;28;20310;-80
2022/03/31 02:00:58;;;;;;;8.43;5.88;;;;;;;;;;5029771;28;20706;-81
2022/03/31 02:03:25;;;;;;;7.40;6.70;;;;;;;;;;5030913;28;20199;-81
2022/03/31 02:05:52;;;;;;;7.60;6.25;;;;;;;;;;5032068;28;20210;-80
2022/03/31 02:08:19;;;;;;;7.28;6.10;;;;;;;;;;5031369;28;20204;-80
2022/03/31 02:10:46;;;;;;;9.98;6.82;;;;;;;;;;5028387;28;20563;-80
2022/03/31 02:13:14;;;;;;;11.30;5.90;;;;;;;;;;5029902;28;21823;-81
2022/03/31 02:15:43;;;;;;;6.60;5.60;;;;;;;;;;5027796;28;20195;-80
2022/03/31 02:18:10;;;;;;;9.65;6.50;;;;;;;;;;5030596;28;20200;-81
2022/03/31 02:20:39;;;;;;;7.95;6.05;;;;;;;;;;5023835;28;20547;-81
2022/03/31 02:23:06;;;;;;;11.35;6.55;;;;;;;;;;5029335;28;20290;-81
2022/03/31 02:25:34;;;;;;;6.88;6.18;;;;;;;;;;5027043;28;20274;-81
2022/03/31 02:28:01;;;;;;;6.13;5.47;;;;;;;;;;5028454;28;20199;-81
2022/03/31 02:30:28;;;;;;;7.13;6.28;;;;;;;;;;5035584;28;20801;-81
2022/03/31 02:32:59;;;;;;;12.15;6.97;;;;;;;;;;5039829;28;20191;-81
2022/03/31 02:35:26;;;;;;;7.95;6.65;;;;;;;;;;5025016;28;20191;-80
2022/03/31 02:37:53;;;;;;;8.93;6.90;;;;;;;;;;5029525;28;20221;-79
2022/03/31 02:40:20;;;;;;;7.43;5.75;;;;;;;;;;5025410;28;20204;-78
2022/03/31 02:42:47;;;;;;;7.63;5.93;;;;;;;;;;5033989;28;20255;-78
2022/03/31 02:45:14;;;;;;;7.18;6.43;;;;;;;;;;5016957;28;20200;-77
2022/03/31 02:47:44;;;;;;;7.43;5.90;;;;;;;;;;5026162;28;20192;-77
2022/03/31 02:50:13;;;;;;;6.82;6.15;;;;;;;;;;5013323;28;20195;-76
2022/03/31 02:55:25;;;;;;;10.38;7.28;;;;;;;;;;5015366;28;20246;-76
2022/03/31 02:57:53;;;;;;;8.15;6.32;;;;;;;;;;5029631;28;20268;-76
2022/03/31 03:00:20;;;;;;;8.13;7.18;;;;;;;;;;5024786;28;20187;-78
2022/03/31 03:02:47;;;;;;;14.45;7.20;;;;;;;;;;5029252;28;20416;-78
2022/03/31 03:05:15;;;;;;;6.70;5.90;;;;;;;;;;5024527;28;20282;-78
2022/03/31 03:07:42;;;;;;;10.23;6.95;;;;;;;;;;5032408;28;20196;-77
2022/03/31 03:10:10;;;;;;;7.45;6.30;;;;;;;;;;5027481;28;20345;-76
2022/03/31 03:12:39;;;;;;;8.15;6.60;;;;;;;;;;5026468;28;20202;-76
2022/03/31 03:15:06;;;;;;;8.77;6.72;;;;;;;;;;5028203;28;20558;-81
2022/03/31 03:17:33;;;;;;;10.02;6.53;;;;;;;;;;5027234;28;20216;-80
2022/03/31 03:20:00;;;;;;;9.43;6.05;;;;;;;;;;5028584;28;20282;-80
2022/03/31 03:22:29;;;;;;;7.72;5.47;;;;;;;;;;5027026;28;20192;-80
2022/03/31 03:24:56;;;;;;;10.00;6.82;;;;;;;;;;5028011;28;20216;-80
2022/03/31 03:27:23;;;;;;;8.05;6.80;;;;;;;;;;5027339;28;20220;-80
2022/03/31 03:29:50;;;;;;;7.50;6.70;;;;;;;;;;5026169;28;20246;-78
2022/03/31 03:32:17;;;;;;;10.27;6.70;;;;;;;;;;5030982;28;20219;-77
2022/03/31 03:34:44;;;;;;;10.02;6.28;;;;;;;;;;5026188;28;20656;-77
2022/03/31 03:37:11;;;;;;;6.60;5.90;;;;;;;;;;5024981;28;20283;-78
2022/03/31 03:39:39;;;;;;;11.10;5.50;;;;;;;;;;5026900;28;20724;-77
2022/03/31 03:42:07;;;;;;;9.73;6.57;;;;;;;;;;5026541;28;20223;-79
2022/03/31 03:44:35;;;;;;;8.90;6.70;;;;;;;;;;5026290;28;20196;-77
2022/03/31 03:47:02;;;;;;;7.90;5.82;;;;;;;;;;5027870;28;20211;-77
2022/03/31 03:49:29;;;;;;;12.10;7.93;;;;;;;;;;5030799;28;20249;-77
2022/03/31 03:51:56;;;;;;;6.63;5.93;;;;;;;;;;5026289;28;20203;-77
2022/03/31 03:54:23;;;;;;;8.85;6.72;;;;;;;;;;5028680;28;20196;-77
2022/03/31 03:56:51;;;;;;;8.50;6.32;;;;;;;;;;5019203;28;20212;-78
2022/03/31 03:59:18;;;;;;;10.52;6.65;;;;;;;;;;5027316;28;20195;-77
2022/03/31 04:01:45;;;;;;;10.98;7.95;;;;;;;;;;5026303;28;20250;-77
2022/03/31 04:04:12;;;;;;;10.30;6.95;;;;;;;;;;5025557;28;20192;-77
2022/03/31 04:06:39;;;;;;;6.60;5.97;;;;;;;;;;5025780;28;20277;-77
2022/03/31 04:09:06;;;;;;;9.00;7.35;;;;;;;;;;5027776;28;20242;-78
2022/03/31 04:11:33;;;;;;;7.85;5.50;;;;;;;;;;5026790;28;20602;-79
2022/03/31 04:14:03;;;;;;;10.13;6.68;;;;;;;;;;5029006;28;20246;-79
2022/03/31 04:16:30;;;;;;;7.72;6.65;;;;;;;;;;5023885;28;20218;-79
2022/03/31 04:18:57;;;;;;;8.85;5.97;;;;;;;;;;5025733;28;20655;-78
2022/03/31 04:21:24;;;;;;;9.52;6.95;;;;;;;;;;5029876;28;20195;-78
2022/03/31 04:23:51;;;;;;;6.68;5.97;;;;;;;;;;5026967;28;20219;-78
2022/03/31 04:26:18;;;;;;;9.93;6.43;;;;;;;;;;5023287;28;20215;-79
2022/03/31 04:28:45;;;;;;;7.07;5.53;;;;;;;;;;5028574;28;20261;-78
2022/03/31 04:31:13;;;;;;;8.43;6.22;;;;;;;;;;5023278;28;20199;-79
2022/03/31 04:33:40;;;;;;;10.95;6.03;;;;;;;;;;5030920;28;20733;-79
2022/03/31 04:36:08;;;;;;;6.90;6.30;;;;;;;;;;5028410;28;20249;-80
2022/03/31 04:38:35;;;;;;;7.93;5.68;;;;;;;;;;5035640;28;20198;-79
2022/03/31 04:41:02;;;;;;;6.55;5.93;;;;;;;;;;5021734;28;20218;-78
2022/03/31 04:43:29;;;;;;;8.80;6.00;;;;;;;;;;5043631;28;20229;-76
2022/03/31 04:45:56;;;;;;;8.80;6.05;;;;;;;;;;5031094;28;20204;-78
2022/03/31 04:48:24;;;;;;;8.02;6.07;;;;;;;;;;5027252;28;20673;-80
2022/03/31 04:50:51;;;;;;;10.63;6.60;;;;;;;;;;5019397;28;21030;-78
2022/03/31 04:53:18;;;;;;;8.25;6.00;;;;;;;;;;5035020;28;20238;-79
2022/03/31 04:55:46;;;;;;;7.45;5.53;;;;;;;;;;5027613;28;20238;-79
2022/03/31 04:58:13;;;;;;;7.10;6.32;;;;;;;;;;5033698;28;20191;-79
2022/03/31 05:00:40;;;;;;;8.70;7.53;;;;;;;;;;5032381;28;20195;-79
2022/03/31 05:03:07;;;;;;;10.23;6.90;;;;;;;;;;5031197;28;20654;-78
2022/03/31 05:05:35;;;;;;;9.48;7.32;;;;;;;;;;5030850;28;20715;-80
2022/03/31 05:08:02;;;;;;;6.88;6.05;;;;;;;;;;5030085;28;20219;-78
2022/03/31 05:10:29;;;;;;;7.35;5.50;;;;;;;;;;5027882;28;20203;-75
2022/03/31 05:12:56;;;;;;;8.20;6.13;;;;;;;;;;5034328;28;20250;-77
2022/03/31 05:15:24;;;;;;;6.93;6.22;;;;;;;;;;5027634;28;20541;-76
2022/03/31 05:17:51;;;;;;;8.25;6.20;;;;;;;;;;5031835;28;20200;-78
2022/03/31 05:20:18;;;;;;;8.10;5.63;;;;;;;;;;5031117;28;20313;-77
2022/03/31 05:22:47;;;;;;;9.52;7.03;;;;;;;;;;5032978;28;20200;-78
2022/03/31 05:25:14;;;;;;;8.32;6.18;;;;;;;;;;5028976;28;20608;-78
2022/03/31 05:27:44;;;;;;;8.40;6.60;;;;;;;;;;5032692;28;20273;-80
2022/03/31 05:30:12;;;;;;;11.55;7.10;;;;;;;;;;5023262;28;20203;-85
2022/03/31 05:32:39;;;;;;;6.53;5.93;;;;;;;;;;5035612;28;20188;-79
2022/03/31 05:35:06;;;;;;;7.10;5.70;;;;;;;;;;5029851;28;20241;-80
2022/03/31 05:37:34;;;;;;;9.95;6.68;;;;;;;;;;5032068;28;20199;-76
2022/03/31 05:40:04;;;;;;;9.38;6.43;;;;;;;;;;5028109;28;20203;-78
2022/03/31 05:42:31;;;;;;;6.95;5.80;;;;;;;;;;5033344;28;20204;-78
2022/03/31 05:44:59;;;;;;;6.78;5.43;;;;;;;;;;5030041;28;20566;-78
2022/03/31 05:47:26;;;;;;;6.97;6.32;;;;;;;;;;5031996;28;20342;-78
2022/03/31 05:49:53;;;;;;;10.43;6.30;;;;;;;;;;5028617;28;20199;-78
2022/03/31 05:52:20;;;;;;;11.90;6.18;;;;;;;;;;5033477;28;20237;-80
2022/03/31 05:54:48;;;;;;;9.63;6.10;;;;;;;;;;5029419;28;20294;-80
2022/03/31 05:57:16;;;;;;;7.45;5.95;;;;;;;;;;5033503;28;20258;-81
2022/03/31 05:59:43;;;;;;;8.70;6.38;;;;;;;;;;5030455;28;20199;-81
2022/03/31 06:02:11;;;;;;;9.98;7.10;;;;;;;;;;5028107;28;20230;-80
2022/03/31 06:04:38;;;;;;;9.20;6.70;;;;;;;;;;5026795;28;20196;-80
2022/03/31 06:07:05;;;;;;;8.20;5.95;;;;;;;;;;5028303;28;20955;-80
2022/03/31 06:09:32;;;;;;;13.57;8.05;;;;;;;;;;5029793;28;20226;-80
2022/03/31 06:11:59;;;;;;;13.38;8.43;;;;;;;;;;5032769;28;20201;-80
2022/03/31 06:14:28;;;;;;;7.82;6.13;;;;;;;;;;5025177;28;20614;-80
2022/03/31 06:16:55;;;;;;;8.85;6.28;;;;;;;;;;5025899;28;20290;-78
2022/03/31 06:19:22;;;;;;;8.38;7.07;;;;;;;;;;5024440;28;20226;-77
2022/03/31 06:21:49;;;;;;;11.60;7.18;;;;;;;;;;5031404;28;20207;-78
2022/03/31 06:24:16;;;;;;;9.73;7.15;;;;;;;;;;5029632;28;20219;-78
2022/03/31 06:26:43;;;;;;;9.80;5.93;;;;;;;;;;5027630;28;20697;-80
2022/03/31 06:29:10;;;;;;;9.07;6.60;;;;;;;;;;5031203;28;20196;-79
2022/03/31 06:31:39;;;;;;;10.02;6.75;;;;;;;;;;5032682;28;20203;-80
2022/03/31 06:34:06;;;;;;;9.68;6.80;;;;;;;;;;5036169;28;20195;-80
2022/03/31 06:36:33;;;;;;;12.45;7.70;;;;;;;;;;5016219;28;20235;-79
2022/03/31 06:39:00;;;;;;;7.90;7.10;;;;;;;;;;5016342;28;20184;-79
2022/03/31 06:41:27;;;;;;;8.13;7.30;;;;;;;;;;5021626;28;20768;-77
2022/03/31 06:43:54;;;;;;;11.27;7.50;;;;;;;;;;5025764;28;20196;-77
2022/03/31 06:46:21;;;;;;;10.18;7.38;;;;;;;;;;5049808;28;20519;-77
2022/03/31 06:48:50;;;;;;;9.88;8.15;;;;;;;;;;5039629;28;20195;-77
2022/03/31 06:51:17;;;;;;;7.65;6.15;;;;;;;;;;5029487;28;20199;-77
2022/03/31 06:53:45;;;;;;;10.27;7.63;;;;;;;;;;5041257;28;20210;-78
2022/03/31 06:56:16;;;;;;;11.38;6.70;;;;;;;;;;5029765;28;20203;-78
2022/03/31 06:58:44;;;;;;;9.68;7.25;;;;;;;;;;5052841;28;20716;-78
2022/03/31 07:01:11;;;;;;;9.77;7.15;;;;;;;;;;5043738;28;20199;-77
2022/03/31 07:03:38;;;;;;;6.72;5.95;;;;;;;;;;5034827;28;20196;-77
2022/03/31 07:06:07;;;;;;;8.98;6.68;;;;;;;;;;5021543;28;20717;-76
2022/03/31 07:08:35;;;;;;;13.10;7.13;;;;;;;;;;5023455;28;20220;-79
2022/03/31 07:11:03;;;;;;;9.80;7.85;;;;;;;;;;5025671;28;20646;-77
2022/03/31 07:13:30;;;;;;;10.63;8.07;;;;;;;;;;5026766;28;20206;-79
2022/03/31 07:15:57;;;;;;;8.52;7.13;;;;;;;;;;5024563;28;20195;-80
2022/03/31 07:18:24;;;;;;;12.27;7.30;;;;;;;;;;5023459;28;20196;-78
2022/03/31 07:20:51;;;;;;;9.48;7.03;;;;;;;;;;5025825;28;20191;-80
2022/03/31 07:23:21;;;;;;;15.52;9.32;;;;;;;;;;5022015;28;20222;-80
2022/03/31 07:25:48;;;;;;;14.93;8.00;;;;;;;;;;5025040;28;20291;-80
2022/03/31 07:28:15;;;;;;;12.00;6.65;;;;;;;;;;5025553;28;20251;-80
2022/03/31 07:30:42;;;;;;;14.27;6.97;;;;;;;;;;5030255;28;20265;-80
2022/03/31 07:33:10;;;;;;;11.25;7.97;;;;;;;;;;5028176;28;20207;-80
2022/03/31 07:35:38;;;;;;;19.52;8.27;;;;;;;;;;5027199;28;20196;-81
2022/03/31 07:38:08;;;;;;;9.68;8.18;;;;;;;;;;5025571;28;20191;-80
2022/03/31 07:40:37;;;;;;;9.27;7.25;;;;;;;;;;5022382;28;20230;-80
2022/03/31 07:43:04;;;;;;;9.77;7.20;;;;;;;;;;5029981;28;20195;-80
2022/03/31 07:45:34;;;;;;;11.55;8.27;;;;;;;;;;5029775;28;20184;-80
2022/03/31 07:48:02;;;;;;;15.15;8.55;;;;;;;;;;5025003;28;20707;-80
2022/03/31 07:50:29;;;;;;;11.30;8.40;;;;;;;;;;5022307;28;20551;-80
2022/03/31 07:52:57;;;;;;;20.80;12.60;;;;;;;;;;5029618;28;20242;-80
2022/03/31 07:55:24;;;;;;;14.70;10.02;;;;;;;;;;5027255;28;20203;-80
2022/03/31 07:57:53;;;;;;;13.23;9.80;;;;;;;;;;5029902;28;20265;-81
2022/03/31 08:00:21;;;;;;;12.57;9.00;;;;;;;;;;5027441;28;20215;-80
2022/03/31 08:02:48;;;;;;;12.75;9.00;;;;;;;;;;5033146;28;20199;-80
2022/03/31 08:05:17;;;;;;;13.38;9.02;;;;;;;;;;5026271;28;20253;-80
2022/03/31 08:07:44;;;;;;;10.15;7.88;;;;;;;;;;5025872;28;20207;-80
2022/03/31 08:10:11;;;;;;;12.32;8.30;;;;;;;;;;5024574;28;20278;-80
2022/03/31 08:12:39;;;;;;;10.75;8.02;;;;;;;;;;5029786;28;20203;-77
2022/03/31 08:15:09;;;;;;;10.55;7.50;;;;;;;;;;5030259;28;20192;-80
2022/03/31 08:17:37;;;;;;;14.05;8.73;;;;;;;;;;5031576;28;20199;-79
2022/03/31 08:20:04;;;;;;;11.40;9.15;;;;;;;;;;5027899;28;20187;-77
2022/03/31 08:22:31;;;;;;;12.10;8.63;;;;;;;;;;5030773;28;20219;-80
2022/03/31 08:24:59;;;;;;;10.90;9.02;;;;;;;;;;5026109;28;20760;-80
2022/03/31 08:27:26;;;;;;;12.93;9.23;;;;;;;;;;5028281;28;20693;-80
2022/03/31 08:29:53;;;;;;;16.83;10.45;;;;;;;;;;5027271;28;20263;-80
2022/03/31 08:32:22;;;;;;;17.10;12.43;;;;;;;;;;5036879;28;20198;-80
2022/03/31 08:34:49;;;;;;;14.38;11.07;;;;;;;;;;5030759;28;20192;-80
2022/03/31 08:37:16;;;;;;;14.88;10.82;;;;;;;;;;5015264;28;20195;-80
2022/03/31 08:39:43;;;;;;;14.82;9.95;;;;;;;;;;5023555;28;20594;-80
2022/03/31 08:42:11;;;;;;;15.55;10.85;;;;;;;;;;5013383;28;20203;-80
2022/03/31 08:44:39;;;;;;;18.20;11.98;;;;;;;;;;5036097;28;20200;-80
2022/03/31 08:47:08;;;;;;;14.23;11.40;;;;;;;;;;5025961;28;20218;-80
2022/03/31 08:49:37;;;;;;;16.13;10.02;;;;;;;;;;5025714;28;20270;-80
2022/03/31 08:52:05;;;;;;;15.00;11.18;;;;;;;;;;5027685;28;20195;-80
2022/03/31 08:54:32;;;;;;;16.40;10.57;;;;;;;;;;5018077;28;20184;-80
2022/03/31 08:56:59;;;;;;;17.30;12.13;;;;;;;;;;5015752;28;20200;-80
2022/03/31 08:59:26;;;;;;;15.13;10.80;;;;;;;;;;5013952;28;20699;-80
2022/03/31 09:01:53;;;;;;;16.00;11.82;;;;;;;;;;5024862;28;20245;-81
2022/03/31 09:04:21;;;;;;;15.73;12.57;;;;;;;;;;5020631;28;20188;-80
2022/03/31 09:06:50;;;;;;;13.00;10.27;;;;;;;;;;5025621;28;20219;-81
2022/03/31 09:09:18;;;;;;;16.85;11.82;;;;;;;;;;5028365;28;20224;-80
2022/03/31 09:11:46;;;;;;;15.13;11.32;;;;;;;;;;5026537;28;20214;-80
2022/03/31 09:14:14;;;;;;;17.38;11.63;;;;;;;;;;5022122;28;20613;-85
2022/03/31 09:16:41;;;;;;;19.60;13.23;;;;;;;;;;5024853;28;20253;-78
2022/03/31 09:19:10;;;;;;;17.42;13.40;;;;;;;;;;5028259;28;20250;-77
2022/03/31 09:21:37;;;;;;;15.00;10.88;;;;;;;;;;5031074;28;20338;-80
2022/03/31 09:24:06;;;;;;;19.75;15.25;;;;;;;;;;5030901;28;20257;-83
2022/03/31 09:26:33;;;;;;;22.52;16.70;;;;;;;;;;5030174;28;20608;-79
2022/03/31 09:29:12;;;;;;;20.77;14.75;;;;;;;;;;5032011;28;20215;-79
2022/03/31 09:31:40;;;;;;;21.33;14.20;;;;;;;;;;5029221;28;20654;-79
2022/03/31 09:34:07;;;;;;;22.85;14.93;;;;;;;;;;5029697;28;20220;-78
2022/03/31 09:36:34;;;;;;;17.65;13.55;;;;;;;;;;5025358;28;20680;-79
2022/03/31 09:39:03;;;;;;;19.75;14.70;;;;;;;;;;5029207;28;20196;-79
2022/03/31 09:41:32;;;;;;;20.98;16.02;;;;;;;;;;5024467;28;20196;-79
2022/03/31 09:44:00;;;;;;;17.98;13.75;;;;;;;;;;5029103;28;20539;-79
2022/03/31 09:46:28;;;;;;;20.27;13.95;;;;;;;;;;5023003;28;20646;-81
2022/03/31 09:48:55;;;;;;;23.52;16.98;;;;;;;;;;5027183;28;20254;-84
2022/03/31 09:51:23;;;;;;;27.63;19.58;;;;;;;;;;5028208;28;20195;-82
2022/03/31 09:53:51;;;;;;;26.63;18.35;;;;;;;;;;5024538;28;20219;-83
2022/03/31 09:56:19;;;;;;;23.98;17.55;;;;;;;;;;5023410;28;20290;-83
2022/03/31 09:58:48;;;;;;;21.25;15.23;;;;;;;;;;5024262;28;20195;-80
2022/03/31 10:01:15;;;;;;;26.13;17.05;;;;;;;;;;5025585;28;20243;-82
2022/03/31 10:03:42;;;;;;;24.13;17.60;;;;;;;;;;5028105;28;20195;-82
2022/03/31 10:06:10;;;;;;;24.20;16.53;;;;;;;;;;5028589;28;20597;-77
2022/03/31 10:08:42;;;;;;;22.98;15.50;;;;;;;;;;5032468;28;20528;-80
2022/03/31 10:11:09;;;;;;;23.77;17.45;;;;;;;;;;5028964;28;20273;-81
2022/03/31 10:13:39;;;;;;;19.25;15.48;;;;;;;;;;5032138;28;20654;-80
2022/03/31 10:16:09;;;;;;;16.83;13.75;;;;;;;;;;5031064;28;20678;-77
2022/03/31 10:21:40;;;;;;;18.40;13.52;;;;;;;;;;5014879;28;20252;-76
2022/03/31 10:27:01;;;;;;;22.17;15.50;;;;;;;;;;5027136;28;20222;-78
2022/03/31 10:29:37;;;;;;;16.92;13.02;;;;;;;;;;5023992;28;20224;-77
2022/03/31 10:32:15;;;;;;;16.70;12.88;;;;;;;;;;5015572;28;20268;-77
2022/03/31 10:34:44;;;;;;;19.52;13.15;;;;;;;;;;5022227;28;20226;-79
2022/03/31 10:37:12;;;;;;;14.02;11.73;;;;;;;;;;5027062;28;20210;-77
2022/03/31 10:39:39;;;;;;;18.95;14.18;;;;;;;;;;5028502;28;20208;-78
2022/03/31 10:42:07;;;;;;;19.50;13.65;;;;;;;;;;5028396;28;20214;-78
2022/03/31 10:44:34;;;;;;;15.18;13.02;;;;;;;;;;5015553;28;20595;-77
2022/03/31 10:47:02;;;;;;;17.60;12.88;;;;;;;;;;5026783;28;20269;-74
2022/03/31 10:49:31;;;;;;;17.17;12.27;;;;;;;;;;5033085;28;20625;-77
2022/03/31 10:51:58;;;;;;;19.95;14.02;;;;;;;;;;5029950;28;20196;-75
2022/03/31 10:54:26;;;;;;;17.17;12.52;;;;;;;;;;5036733;28;20204;-74
2022/03/31 10:57:04;;;;;;;15.80;12.00;;;;;;;;;;5031224;28;20888;-77
2022/03/31 10:59:31;;;;;;;17.42;13.35;;;;;;;;;;5024111;28;20299;-77
2022/03/31 11:01:58;;;;;;;17.00;13.90;;;;;;;;;;5023982;28;20187;-81
2022/03/31 11:04:26;;;;;;;14.88;12.05;;;;;;;;;;5029888;28;20241;-80
2022/03/31 11:06:55;;;;;;;15.60;11.15;;;;;;;;;;5021725;28;20200;-80
2022/03/31 11:09:22;;;;;;;16.35;12.43;;;;;;;;;;5011545;28;20260;-81
2022/03/31 11:11:50;;;;;;;16.27;12.50;;;;;;;;;;5028864;28;20203;-82
2022/03/31 11:14:18;;;;;;;16.23;12.60;;;;;;;;;;5026041;28;20200;-79
2022/03/31 11:16:46;;;;;;;17.88;12.18;;;;;;;;;;5025167;28;20206;-81
2022/03/31 11:19:13;;;;;;;14.02;11.57;;;;;;;;;;5025879;28;20222;-81
2022/03/31 11:21:42;;;;;;;18.20;12.98;;;;;;;;;;5024917;28;20255;-81
2022/03/31 11:24:11;;;;;;;18.40;13.25;;;;;;;;;;5026641;28;20239;-79
2022/03/31 11:26:40;;;;;;;13.00;10.65;;;;;;;;;;5021827;28;20203;-80
2022/03/31 11:29:11;;;;;;;14.48;11.25;;;;;;;;;;5027608;28;20705;-81
2022/03/31 11:31:38;;;;;;;14.88;11.82;;;;;;;;;;5021787;28;20199;-81
2022/03/31 11:34:16;;;;;;;13.90;10.02;;;;;;;;;;5020552;28;20199;-79
2022/03/31 11:36:43;;;;;;;13.63;10.93;;;;;;;;;;5022204;28;20481;-77
2022/03/31 11:39:12;;;;;;;13.95;11.48;;;;;;;;;;5026240;28;21042;-77
2022/03/31 11:41:40;;;;;;;13.70;10.85;;;;;;;;;;5026083;28;20258;-78
2022/03/31 11:44:07;;;;;;;13.55;10.50;;;;;;;;;;5027449;28;20201;-78
2022/03/31 11:46:39;;;;;;;14.27;12.50;;;;;;;;;;5024269;28;20282;-78
2022/03/31 11:49:14;;;;;;;14.07;10.95;;;;;;;;;;5023564;28;20314;-77
2022/03/31 11:51:41;;;;;;;17.20;12.27;;;;;;;;;;5023898;28;20211;-79
2022/03/31 11:54:09;;;;;;;18.98;13.25;;;;;;;;;;5018460;28;20562;-78
2022/03/31 11:56:37;;;;;;;18.23;13.35;;;;;;;;;;5017652;28;20290;-78
2022/03/31 11:59:05;;;;;;;22.27;16.20;;;;;;;;;;5017274;28;20199;-77
2022/03/31 12:01:37;;;;;;;18.38;14.10;;;;;;;;;;5017011;28;20210;-77
2022/03/31 12:04:04;;;;;;;22.55;15.85;;;;;;;;;;5025740;28;20666;-77
2022/03/31 12:06:32;;;;;;;24.52;15.90;;;;;;;;;;5019014;28;20670;-74
2022/03/31 12:08:59;;;;;;;16.90;12.65;;;;;;;;;;5025283;28;20281;-75
2022/03/31 12:11:29;;;;;;;18.85;13.25;;;;;;;;;;5023152;28;20656;-73
2022/03/31 12:14:01;;;;;;;19.23;15.45;;;;;;;;;;5017997;28;20693;-75
2022/03/31 12:16:28;;;;;;;24.83;16.83;;;;;;;;;;5018658;28;20200;-75
2022/03/31 12:18:56;;;;;;;21.60;14.20;;;;;;;;;;5019668;28;20203;-74
2022/03/31 12:21:23;;;;;;;20.92;15.48;;;;;;;;;;5020346;28;20207;-74
2022/03/31 12:23:51;;;;;;;23.33;15.57;;;;;;;;;;5025170;28;20215;-76
2022/03/31 12:26:20;;;;;;;22.25;16.33;;;;;;;;;;5018872;28;20204;-74
2022/03/31 12:28:48;;;;;;;27.67;16.65;;;;;;;;;;5022976;28;20314;-74
2022/03/31 12:31:26;;;;;;;24.00;17.15;;;;;;;;;;5019043;28;20203;-76
2022/03/31 12:33:54;;;;;;;29.20;18.70;;;;;;;;;;5014735;28;20204;-76
2022/03/31 12:36:25;;;;;;;25.88;17.17;;;;;;;;;;5000454;28;20196;-83
2022/03/31 12:38:53;;;;;;;25.98;17.77;;;;;;;;;;5020723;28;20227;-74
2022/03/31 12:41:21;;;;;;;28.80;18.13;;;;;;;;;;5021808;28;20203;-75
2022/03/31 12:43:58;;;;;;;23.85;17.83;;;;;;;;;;5020387;28;20799;-77
2022/03/31 12:46:29;;;;;;;30.63;19.60;;;;;;;;;;5025244;28;20565;-75
2022/03/31 12:48:57;;;;;;;25.88;17.73;;;;;;;;;;5030856;28;20250;-74
2022/03/31 12:51:25;;;;;;;23.10;17.58;;;;;;;;;;5022079;28;20192;-75
2022/03/31 12:53:52;;;;;;;29.08;19.30;;;;;;;;;;5028236;28;20582;-74
2022/03/31 12:56:29;;;;;;;28.30;19.23;;;;;;;;;;5028726;28;20204;-75
2022/03/31 12:58:57;;;;;;;26.98;17.88;;;;;;;;;;5028897;28;20568;-75
2022/03/31 13:01:28;;;;;;;26.50;18.67;;;;;;;;;;5028485;28;20285;-77
2022/03/31 13:03:55;;;;;;;28.35;20.45;;;;;;;;;;5026770;28;20199;-78
2022/03/31 13:06:22;;;;;;;25.13;19.50;;;;;;;;;;5028327;28;20436;-82
2022/03/31 13:08:51;;;;;;;31.10;21.75;;;;;;;;;;5027482;28;20223;-84
2022/03/31 13:11:18;;;;;;;31.73;21.70;;;;;;;;;;5031937;28;20196;-82
2022/03/31 13:13:45;;;;;;;28.15;18.80;;;;;;;;;;5030455;28;20191;-77
2022/03/31 13:16:13;;;;;;;23.65;17.92;;;;;;;;;;5028356;28;20211;-82
2022/03/31 13:18:42;;;;;;;28.77;21.88;;;;;;;;;;5030100;28;20282;-79
2022/03/31 13:21:10;;;;;;;31.75;20.40;;;;;;;;;;5026638;28;20200;-75
2022/03/31 13:23:37;;;;;;;33.83;19.15;;;;;;;;;;5027884;28;20200;-82
2022/03/31 13:26:06;;;;;;;27.52;18.92;;;;;;;;;;5024501;28;20208;-82
2022/03/31 13:28:33;;;;;;;29.60;19.58;;;;;;;;;;5026333;28;20667;-82
2022/03/31 13:31:01;;;;;;;28.55;18.77;;;;;;;;;;5027746;28;20242;-80
2022/03/31 13:33:30;;;;;;;27.13;19.83;;;;;;;;;;5034264;28;20191;-85
2022/03/31 13:35:59;;;;;;;24.30;17.95;;;;;;;;;;5029432;28;20207;-78
2022/03/31 13:38:31;;;;;;;28.55;20.75;;;;;;;;;;5028111;28;20206;-78
2022/03/31 13:40:58;;;;;;;28.85;20.70;;;;;;;;;;5030496;28;20576;-79
2022/03/31 13:43:25;;;;;;;27.60;19.40;;;;;;;;;;5029387;28;20203;-80
2022/03/31 13:45:52;;;;;;;29.77;20.55;;;;;;;;;;5027589;28;20257;-79
2022/03/31 13:48:19;;;;;;;29.35;19.98;;;;;;;;;;5030108;28;20203;-79
2022/03/31 13:50:46;;;;;;;26.30;17.52;;;;;;;;;;5029075;28;20227;-82
2022/03/31 13:56:00;;;;;;;26.10;17.55;;;;;;;;;;5031805;28;20260;-76
2022/03/31 14:01:12;;;;;;;28.80;18.88;;;;;;;;;;5017759;28;20345;-79
2022/03/31 14:03:40;;;;;;;27.95;17.48;;;;;;;;;;5020450;28;20543;-76
2022/03/31 14:06:08;;;;;;;33.72;19.83;;;;;;;;;;5017850;28;20672;-80
2022/03/31 14:08:36;;;;;;;30.85;20.85;;;;;;;;;;5021573;28;20199;-79
2022/03/31 14:11:04;;;;;;;22.67;15.75;;;;;;;;;;5022142;28;20604;-79
2022/03/31 14:13:31;;;;;;;22.80;17.35;;;;;;;;;;5020882;28;20421;-80
2022/03/31 14:16:00;;;;;;;25.23;17.17;;;;;;;;;;5020571;28;20200;-82
2022/03/31 14:18:28;;;;;;;22.50;16.13;;;;;;;;;;5022075;28;20286;-81
2022/03/31 14:20:55;;;;;;;27.63;17.35;;;;;;;;;;5018309;28;20227;-80
2022/03/31 14:23:22;;;;;;;25.35;16.30;;;;;;;;;;5017789;28;20199;-82
2022/03/31 14:25:50;;;;;;;25.08;18.00;;;;;;;;;;5021642;28;20203;-83
2022/03/31 14:28:18;;;;;;;20.00;15.73;;;;;;;;;;5021046;28;20593;-84
2022/03/31 14:30:45;;;;;;;24.75;15.70;;;;;;;;;;5018382;28;20231;-83
2022/03/31 14:33:12;;;;;;;21.60;14.73;;;;;;;;;;5024869;28;20207;-81
2022/03/31 14:35:39;;;;;;;19.73;13.95;;;;;;;;;;5021734;28;20211;-83
2022/03/31 14:38:07;;;;;;;17.98;14.05;;;;;;;;;;5021307;28;20237;-79
2022/03/31 14:40:34;;;;;;;20.58;14.05;;;;;;;;;;5021344;28;20200;-79
2022/03/31 14:43:03;;;;;;;17.55;13.50;;;;;;;;;;5010116;28;20200;-79
2022/03/31 14:45:30;;;;;;;17.77;13.65;;;;;;;;;;5010134;28;20223;-80